Time;durP1;ratioP1;P1;durP2;ratioP2;P2;SDS_P1;SDS_P2;PMS_P1;PMS_P2;Temp;Humidity;BMP_temperature;BMP_pressure;BME280_temperature;BME280_humidity;BME280_pressure;Samples;Min_cycle;Max_cycle;Signal;HPM_P1;HPM_P2
2021/05/22 00:02:18;;;;;;;3.17;0.80;;;;;;;;;;4927993;28;20052;-81
2021/05/22 00:04:44;;;;;;;1.63;0.80;;;;;;;;;;4941848;28;20084;-81
2021/05/22 00:07:11;;;;;;;2.10;0.90;;;;;;;;;;4940722;28;20079;-82
2021/05/22 00:09:37;;;;;;;2.45;0.80;;;;;;;;;;4927329;28;20539;-81
2021/05/22 00:12:04;;;;;;;1.60;0.68;;;;;;;;;;4925521;28;20039;-80
2021/05/22 00:14:30;;;;;;;2.75;0.90;;;;;;;;;;4927815;28;20070;-80
2021/05/22 00:16:56;;;;;;;1.65;0.80;;;;;;;;;;4941949;28;20063;-81
2021/05/22 00:19:23;;;;;;;2.78;0.80;;;;;;;;;;4941841;28;20071;-81
2021/05/22 00:21:49;;;;;;;2.20;0.68;;;;;;;;;;4925800;28;20067;-82
2021/05/22 00:24:16;;;;;;;2.78;0.70;;;;;;;;;;4925062;28;20526;-80
2021/05/22 00:26:42;;;;;;;2.67;1.10;;;;;;;;;;4923874;28;21627;-81
2021/05/22 00:29:09;;;;;;;2.13;0.80;;;;;;;;;;4930014;28;20063;-79
2021/05/22 00:31:36;;;;;;;2.58;0.80;;;;;;;;;;4918854;28;20067;-82
2021/05/22 00:34:02;;;;;;;2.67;1.00;;;;;;;;;;4929517;28;20059;-82
2021/05/22 00:36:29;;;;;;;1.55;0.70;;;;;;;;;;4919811;28;20055;-80
2021/05/22 00:38:55;;;;;;;2.30;0.70;;;;;;;;;;4940634;28;20061;-80
2021/05/22 00:41:22;;;;;;;2.25;0.90;;;;;;;;;;4925610;28;20059;-82
2021/05/22 00:43:48;;;;;;;1.25;0.60;;;;;;;;;;4925932;28;20122;-80
2021/05/22 00:46:14;;;;;;;2.72;0.80;;;;;;;;;;4935210;28;20066;-80
2021/05/22 00:48:41;;;;;;;2.28;0.90;;;;;;;;;;4941276;28;20071;-80
2021/05/22 00:51:07;;;;;;;1.23;0.60;;;;;;;;;;4925306;28;20067;-80
2021/05/22 00:53:37;;;;;;;2.92;0.90;;;;;;;;;;4924007;28;20039;-81
2021/05/22 00:56:03;;;;;;;3.08;0.90;;;;;;;;;;4926672;28;20067;-80
2021/05/22 00:58:30;;;;;;;2.40;1.05;;;;;;;;;;4925174;28;20064;-80
2021/05/22 01:00:58;;;;;;;2.30;0.70;;;;;;;;;;4926754;28;20063;-80
2021/05/22 01:03:39;;;;;;;1.58;0.70;;;;;;;;;;4936224;28;20079;-80
2021/05/22 01:06:24;;;;;;;1.80;0.75;;;;;;;;;;4927104;28;20067;-80
2021/05/22 01:08:53;;;;;;;2.75;1.00;;;;;;;;;;4937471;28;20466;-80
2021/05/22 01:11:21;;;;;;;2.47;0.70;;;;;;;;;;4923958;28;20087;-80
2021/05/22 01:13:49;;;;;;;1.20;0.60;;;;;;;;;;4925385;28;20059;-80
2021/05/22 01:16:17;;;;;;;1.35;0.80;;;;;;;;;;4930419;28;20067;-80
2021/05/22 01:18:44;;;;;;;3.25;0.85;;;;;;;;;;4913451;28;20155;-81
2021/05/22 01:21:11;;;;;;;2.60;0.80;;;;;;;;;;4935501;28;20067;-80
2021/05/22 01:23:39;;;;;;;1.48;0.73;;;;;;;;;;4926813;28;20063;-82
2021/05/22 01:26:07;;;;;;;2.17;1.05;;;;;;;;;;4927680;28;20067;-80
2021/05/22 01:28:36;;;;;;;2.47;0.90;;;;;;;;;;4923593;28;20087;-80
2021/05/22 01:31:06;;;;;;;1.33;0.60;;;;;;;;;;4926220;28;20138;-80
2021/05/22 01:33:32;;;;;;;2.20;0.98;;;;;;;;;;4925615;28;20055;-80
2021/05/22 01:35:58;;;;;;;1.63;0.80;;;;;;;;;;4937098;28;20073;-80
2021/05/22 01:38:25;;;;;;;2.28;0.80;;;;;;;;;;4925225;28;20122;-80
2021/05/22 01:40:52;;;;;;;1.67;0.80;;;;;;;;;;4937874;28;20032;-80
2021/05/22 01:43:20;;;;;;;2.60;0.85;;;;;;;;;;4939110;28;20063;-79
2021/05/22 01:45:47;;;;;;;1.98;0.90;;;;;;;;;;4921573;28;20559;-80
2021/05/22 01:48:17;;;;;;;3.08;0.75;;;;;;;;;;4935752;28;20373;-79
2021/05/22 01:50:50;;;;;;;2.10;0.85;;;;;;;;;;4925284;28;20035;-80
2021/05/22 01:53:17;;;;;;;2.35;0.80;;;;;;;;;;4905055;28;20118;-80
2021/05/22 01:55:46;;;;;;;2.20;0.82;;;;;;;;;;4937422;28;20060;-80
2021/05/22 01:58:12;;;;;;;2.33;0.80;;;;;;;;;;4920842;28;20090;-80
2021/05/22 02:00:40;;;;;;;1.27;0.70;;;;;;;;;;4927342;28;20056;-80
2021/05/22 02:03:16;;;;;;;1.02;0.65;;;;;;;;;;4928413;28;20071;-80
2021/05/22 02:05:45;;;;;;;2.00;0.70;;;;;;;;;;4917086;28;21321;-80
2021/05/22 02:08:14;;;;;;;3.42;0.90;;;;;;;;;;4920765;28;20630;-80
2021/05/22 02:10:40;;;;;;;2.38;0.73;;;;;;;;;;4921867;28;20118;-80
2021/05/22 02:13:08;;;;;;;1.73;0.70;;;;;;;;;;4922057;28;20130;-81
2021/05/22 02:15:36;;;;;;;1.88;0.70;;;;;;;;;;4917486;28;20056;-81
2021/05/22 02:18:05;;;;;;;2.45;0.70;;;;;;;;;;4937064;28;20071;-82
2021/05/22 02:20:32;;;;;;;1.50;0.68;;;;;;;;;;4934635;28;20067;-79
2021/05/22 02:23:01;;;;;;;1.67;0.60;;;;;;;;;;4921799;28;20071;-80
2021/05/22 02:25:27;;;;;;;3.53;0.80;;;;;;;;;;4923412;28;20518;-80
2021/05/22 02:27:55;;;;;;;1.70;0.55;;;;;;;;;;4922899;28;20055;-79
2021/05/22 02:30:21;;;;;;;3.85;1.05;;;;;;;;;;4913667;28;20094;-79
2021/05/22 02:32:49;;;;;;;2.80;0.90;;;;;;;;;;4920720;28;20083;-78
2021/05/22 02:35:17;;;;;;;2.83;0.82;;;;;;;;;;4933835;28;20068;-78
2021/05/22 02:37:43;;;;;;;1.40;0.60;;;;;;;;;;4936160;28;20079;-77
2021/05/22 02:40:12;;;;;;;2.10;0.60;;;;;;;;;;4907116;28;20059;-76
2021/05/22 02:42:39;;;;;;;1.75;0.73;;;;;;;;;;4922413;28;20114;-79
2021/05/22 02:45:08;;;;;;;2.40;0.60;;;;;;;;;;4926466;28;20126;-79
2021/05/22 02:47:35;;;;;;;1.67;0.70;;;;;;;;;;4920634;28;20278;-81
2021/05/22 02:50:06;;;;;;;1.70;0.60;;;;;;;;;;4926813;28;20835;-80
2021/05/22 02:52:35;;;;;;;1.88;0.63;;;;;;;;;;4920652;28;20052;-79
2021/05/22 02:55:03;;;;;;;2.53;0.80;;;;;;;;;;4936846;28;20067;-80
2021/05/22 02:57:29;;;;;;;1.75;0.70;;;;;;;;;;4923862;28;20064;-79
2021/05/22 02:59:56;;;;;;;2.60;0.80;;;;;;;;;;4909259;29;20457;-80
2021/05/22 03:02:23;;;;;;;1.52;0.60;;;;;;;;;;4895359;28;761568;-79
2021/05/22 03:04:50;;;;;;;2.45;0.80;;;;;;;;;;4922319;28;20067;-79
2021/05/22 03:07:18;;;;;;;1.17;0.60;;;;;;;;;;4924974;28;20067;-79
2021/05/22 03:09:50;;;;;;;1.92;0.50;;;;;;;;;;4923810;28;20044;-79
2021/05/22 03:12:22;;;;;;;2.40;0.80;;;;;;;;;;4921221;28;20031;-79
2021/05/22 03:14:48;;;;;;;2.25;0.70;;;;;;;;;;4927538;28;20091;-79
2021/05/22 03:17:15;;;;;;;1.27;0.68;;;;;;;;;;4938209;28;20425;-80
2021/05/22 03:19:41;;;;;;;1.55;0.60;;;;;;;;;;4941939;28;20465;-81
2021/05/22 03:22:08;;;;;;;1.15;0.63;;;;;;;;;;4937593;28;20060;-78
2021/05/22 03:24:34;;;;;;;0.43;0.30;;;;;;;;;;4921000;28;20512;-80
2021/05/22 03:27:00;;;;;;;3.05;0.80;;;;;;;;;;4933516;28;20075;-76
2021/05/22 03:29:27;;;;;;;1.67;0.50;;;;;;;;;;4935752;28;20085;-83
2021/05/22 03:31:53;;;;;;;1.58;0.60;;;;;;;;;;4917549;28;20062;-80
2021/05/22 03:34:20;;;;;;;1.40;0.68;;;;;;;;;;4920844;28;20079;-80
2021/05/22 03:36:46;;;;;;;2.88;0.70;;;;;;;;;;4923347;28;20115;-79
2021/05/22 03:39:13;;;;;;;2.17;0.63;;;;;;;;;;4934271;28;20582;-80
2021/05/22 03:41:39;;;;;;;2.45;0.80;;;;;;;;;;4936828;28;20048;-80
2021/05/22 03:44:06;;;;;;;1.85;0.77;;;;;;;;;;4922766;28;20138;-79
2021/05/22 03:46:32;;;;;;;1.95;0.70;;;;;;;;;;4936098;28;20074;-79
2021/05/22 03:48:59;;;;;;;1.30;0.60;;;;;;;;;;4923252;28;20075;-80
2021/05/22 03:51:25;;;;;;;1.98;0.63;;;;;;;;;;4922764;28;20167;-80
2021/05/22 03:53:52;;;;;;;2.22;0.82;;;;;;;;;;4923442;28;20071;-80
2021/05/22 03:56:18;;;;;;;1.27;0.60;;;;;;;;;;4921232;28;20123;-80
2021/05/22 03:58:45;;;;;;;2.58;0.80;;;;;;;;;;4923041;28;20787;-80
2021/05/22 04:01:11;;;;;;;2.55;0.60;;;;;;;;;;4921501;28;20063;-80
2021/05/22 04:03:38;;;;;;;2.47;0.80;;;;;;;;;;4937873;28;20077;-80
2021/05/22 04:06:04;;;;;;;3.20;0.82;;;;;;;;;;4920514;28;20457;-82
2021/05/22 04:08:31;;;;;;;2.22;0.60;;;;;;;;;;4920766;28;20047;-81
2021/05/22 04:10:59;;;;;;;1.75;0.50;;;;;;;;;;4925404;28;20066;-81
2021/05/22 04:13:25;;;;;;;1.80;0.60;;;;;;;;;;4931065;28;20040;-81
2021/05/22 04:15:53;;;;;;;2.22;0.60;;;;;;;;;;4920111;28;20556;-82
2021/05/22 04:18:19;;;;;;;1.50;0.70;;;;;;;;;;4914983;28;20059;-82
2021/05/22 04:20:46;;;;;;;3.00;0.82;;;;;;;;;;4923494;28;20086;-81
2021/05/22 04:23:12;;;;;;;1.45;0.50;;;;;;;;;;4916912;28;20059;-81
2021/05/22 04:25:38;;;;;;;1.67;0.50;;;;;;;;;;4930630;28;20059;-80
2021/05/22 04:28:05;;;;;;;1.67;0.77;;;;;;;;;;4922074;28;20090;-79
2021/05/22 04:30:31;;;;;;;1.17;0.45;;;;;;;;;;4940040;28;20067;-80
2021/05/22 04:32:58;;;;;;;1.70;0.65;;;;;;;;;;4924961;28;20160;-80
2021/05/22 04:35:24;;;;;;;3.42;0.77;;;;;;;;;;4924862;28;20067;-80
2021/05/22 04:37:51;;;;;;;2.45;0.70;;;;;;;;;;4926326;28;20098;-80
2021/05/22 04:40:17;;;;;;;1.60;0.60;;;;;;;;;;4927160;28;20059;-80
2021/05/22 04:42:44;;;;;;;1.58;0.50;;;;;;;;;;4944282;28;20063;-79
2021/05/22 04:45:11;;;;;;;1.27;0.77;;;;;;;;;;4923967;28;20067;-81
2021/05/22 04:47:39;;;;;;;2.45;0.80;;;;;;;;;;4935501;28;20067;-78
2021/05/22 04:50:06;;;;;;;2.97;0.57;;;;;;;;;;4916849;29;20115;-78
2021/05/22 04:52:33;;;;;;;1.55;0.60;;;;;;;;;;4920007;28;20123;-78
2021/05/22 04:54:59;;;;;;;1.42;0.70;;;;;;;;;;4923207;28;20434;-78
2021/05/22 04:57:26;;;;;;;1.75;0.60;;;;;;;;;;4938269;28;20059;-80
2021/05/22 04:59:52;;;;;;;3.50;0.90;;;;;;;;;;4924260;28;20492;-80
2021/05/22 05:02:19;;;;;;;1.85;0.70;;;;;;;;;;4923574;28;20099;-79
2021/05/22 05:04:45;;;;;;;1.88;0.60;;;;;;;;;;4916039;28;20047;-80
2021/05/22 05:07:12;;;;;;;1.50;0.70;;;;;;;;;;4925340;28;20047;-79
2021/05/22 05:09:39;;;;;;;2.67;0.77;;;;;;;;;;4927002;28;20072;-80
2021/05/22 05:12:06;;;;;;;1.20;0.68;;;;;;;;;;4931102;28;20063;-79
2021/05/22 05:14:32;;;;;;;1.92;0.60;;;;;;;;;;4938994;28;20465;-80
2021/05/22 05:16:59;;;;;;;1.15;0.55;;;;;;;;;;4924489;28;20035;-80
2021/05/22 05:19:28;;;;;;;2.25;0.50;;;;;;;;;;4923943;28;20071;-78
2021/05/22 05:21:55;;;;;;;2.05;0.65;;;;;;;;;;4924570;28;20111;-78
2021/05/22 05:24:22;;;;;;;3.92;0.60;;;;;;;;;;4921733;28;20677;-79
2021/05/22 05:26:48;;;;;;;2.72;0.63;;;;;;;;;;4923540;28;20071;-79
2021/05/22 05:29:15;;;;;;;1.15;0.43;;;;;;;;;;4923578;28;20126;-79
2021/05/22 05:31:41;;;;;;;1.48;0.60;;;;;;;;;;4934574;28;20071;-80
2021/05/22 05:34:07;;;;;;;2.88;1.13;;;;;;;;;;4920229;28;20130;-81
2021/05/22 05:36:34;;;;;;;2.55;0.80;;;;;;;;;;4923294;28;20068;-79
2021/05/22 05:39:00;;;;;;;2.03;0.65;;;;;;;;;;4923111;28;20064;-79
2021/05/22 05:41:27;;;;;;;2.13;0.55;;;;;;;;;;4923960;28;20052;-80
2021/05/22 05:43:53;;;;;;;1.35;0.50;;;;;;;;;;4924169;28;20748;-80
2021/05/22 05:46:20;;;;;;;1.00;0.50;;;;;;;;;;4922609;28;20074;-80
2021/05/22 05:48:46;;;;;;;2.05;0.63;;;;;;;;;;4928635;28;20068;-78
2021/05/22 05:51:13;;;;;;;2.33;0.65;;;;;;;;;;4921022;28;20066;-78
2021/05/22 05:53:39;;;;;;;1.42;0.50;;;;;;;;;;4929175;28;20136;-80
2021/05/22 05:56:06;;;;;;;1.08;0.50;;;;;;;;;;4939401;28;20066;-80
2021/05/22 05:58:33;;;;;;;1.45;0.73;;;;;;;;;;4921540;28;20063;-78
2021/05/22 06:01:03;;;;;;;1.30;0.60;;;;;;;;;;4924717;28;20062;-77
2021/05/22 06:03:30;;;;;;;1.48;0.70;;;;;;;;;;4929000;28;20063;-78
2021/05/22 06:05:57;;;;;;;2.17;0.70;;;;;;;;;;4922683;28;20063;-78
2021/05/22 06:08:23;;;;;;;2.88;0.90;;;;;;;;;;4921842;28;20059;-78
2021/05/22 06:10:51;;;;;;;1.83;0.57;;;;;;;;;;4921931;28;20078;-78
2021/05/22 06:13:23;;;;;;;2.40;0.60;;;;;;;;;;4937180;28;20056;-78
2021/05/22 06:15:57;;;;;;;1.95;0.70;;;;;;;;;;4928880;28;20830;-78
2021/05/22 06:18:24;;;;;;;2.00;0.50;;;;;;;;;;4918970;28;20043;-79
2021/05/22 06:20:50;;;;;;;3.15;0.77;;;;;;;;;;4923327;28;20087;-78
2021/05/22 06:23:17;;;;;;;1.17;0.50;;;;;;;;;;4920502;28;20137;-78
2021/05/22 06:25:43;;;;;;;1.73;0.63;;;;;;;;;;4939026;28;20079;-78
2021/05/22 06:28:09;;;;;;;0.70;0.40;;;;;;;;;;4922001;28;20032;-79
2021/05/22 06:30:36;;;;;;;1.77;0.60;;;;;;;;;;4922896;28;20524;-77
2021/05/22 06:33:02;;;;;;;0.75;0.43;;;;;;;;;;4924837;28;20071;-78
2021/05/22 06:35:29;;;;;;;0.60;0.50;;;;;;;;;;4919876;28;20122;-79
2021/05/22 06:37:55;;;;;;;2.05;0.50;;;;;;;;;;4905941;29;20059;-78
2021/05/22 06:40:23;;;;;;;0.75;0.50;;;;;;;;;;4920636;28;20051;-77
2021/05/22 06:42:49;;;;;;;2.85;0.60;;;;;;;;;;4937763;28;20039;-78
2021/05/22 06:45:17;;;;;;;2.60;0.80;;;;;;;;;;4920760;28;20812;-80
2021/05/22 06:47:43;;;;;;;1.13;0.50;;;;;;;;;;4922284;28;20074;-76
2021/05/22 06:50:10;;;;;;;1.27;0.50;;;;;;;;;;4932906;28;20072;-77
2021/05/22 06:52:37;;;;;;;1.98;0.57;;;;;;;;;;4916733;28;20436;-78
2021/05/22 06:55:03;;;;;;;1.92;0.77;;;;;;;;;;4920860;28;20575;-77
2021/05/22 06:57:30;;;;;;;4.50;0.80;;;;;;;;;;4930973;28;20047;-78
2021/05/22 06:59:59;;;;;;;2.22;0.63;;;;;;;;;;4919613;28;20170;-78
2021/05/22 07:02:25;;;;;;;3.00;0.70;;;;;;;;;;4918974;28;20067;-77
2021/05/22 07:04:52;;;;;;;1.80;0.68;;;;;;;;;;4920576;28;20067;-77
2021/05/22 07:07:18;;;;;;;2.20;0.60;;;;;;;;;;4917211;28;20197;-75
2021/05/22 07:09:44;;;;;;;1.60;0.50;;;;;;;;;;4935371;28;20071;-75
2021/05/22 07:12:11;;;;;;;2.72;0.60;;;;;;;;;;4932192;28;20071;-76
2021/05/22 07:14:37;;;;;;;2.67;0.80;;;;;;;;;;4938790;28;20059;-76
2021/05/22 07:17:04;;;;;;;1.55;0.70;;;;;;;;;;4935443;28;20078;-76
2021/05/22 07:19:30;;;;;;;2.20;0.70;;;;;;;;;;4920881;28;20142;-76
2021/05/22 07:21:57;;;;;;;3.42;0.90;;;;;;;;;;4920118;28;20064;-75
2021/05/22 07:24:23;;;;;;;1.65;0.70;;;;;;;;;;4918718;28;20698;-76
2021/05/22 07:26:51;;;;;;;2.53;0.60;;;;;;;;;;4920616;28;20040;-77
2021/05/22 07:29:17;;;;;;;2.70;0.77;;;;;;;;;;4918804;28;20576;-75
2021/05/22 07:31:44;;;;;;;2.47;0.50;;;;;;;;;;4934465;28;20071;-76
2021/05/22 07:34:11;;;;;;;1.98;0.75;;;;;;;;;;4918498;28;20067;-75
2021/05/22 07:36:38;;;;;;;2.13;0.60;;;;;;;;;;4920010;28;20275;-76
2021/05/22 07:39:06;;;;;;;1.98;0.60;;;;;;;;;;4917925;28;20171;-76
2021/05/22 07:41:32;;;;;;;2.75;0.68;;;;;;;;;;4920537;28;20070;-76
2021/05/22 07:43:59;;;;;;;1.92;0.55;;;;;;;;;;4931244;28;20067;-76
2021/05/22 07:46:25;;;;;;;1.70;0.90;;;;;;;;;;4919056;28;20071;-76
2021/05/22 07:48:52;;;;;;;1.65;0.60;;;;;;;;;;4920270;28;20036;-76
2021/05/22 07:51:19;;;;;;;0.75;0.55;;;;;;;;;;4918894;28;20064;-76
2021/05/22 07:53:45;;;;;;;1.70;0.70;;;;;;;;;;4921748;28;20118;-75
2021/05/22 07:56:12;;;;;;;3.33;0.90;;;;;;;;;;4918073;28;20067;-76
2021/05/22 07:58:38;;;;;;;3.03;0.70;;;;;;;;;;4919610;28;20056;-76
2021/05/22 08:01:05;;;;;;;2.40;0.60;;;;;;;;;;4916383;28;20079;-76
2021/05/22 08:03:31;;;;;;;6.53;0.80;;;;;;;;;;4917441;28;20092;-75
2021/05/22 08:05:57;;;;;;;3.97;0.80;;;;;;;;;;4924830;28;20117;-76
2021/05/22 08:08:24;;;;;;;1.55;0.75;;;;;;;;;;4921772;28;20547;-76
2021/05/22 08:10:50;;;;;;;1.30;0.70;;;;;;;;;;4923117;28;20083;-77
2021/05/22 08:13:17;;;;;;;1.95;0.70;;;;;;;;;;4922244;28;20071;-77
2021/05/22 08:15:43;;;;;;;2.28;0.80;;;;;;;;;;4938845;28;20055;-78
2021/05/22 08:18:10;;;;;;;2.22;0.60;;;;;;;;;;4923504;28;20114;-77
2021/05/22 08:20:38;;;;;;;4.32;0.80;;;;;;;;;;4920998;28;20712;-77
2021/05/22 08:23:05;;;;;;;2.67;0.73;;;;;;;;;;4921435;28;20575;-76
2021/05/22 08:25:31;;;;;;;2.80;0.82;;;;;;;;;;4935182;28;20083;-77
2021/05/22 08:27:58;;;;;;;4.57;0.85;;;;;;;;;;4911559;29;20100;-75
2021/05/22 08:30:24;;;;;;;1.02;0.55;;;;;;;;;;4921074;28;20138;-76
2021/05/22 08:32:51;;;;;;;1.55;0.75;;;;;;;;;;4940161;28;20130;-76
2021/05/22 08:35:17;;;;;;;2.17;0.82;;;;;;;;;;4922843;28;20412;-76
2021/05/22 08:37:44;;;;;;;1.33;0.70;;;;;;;;;;4919490;28;20074;-78
2021/05/22 08:40:11;;;;;;;2.58;0.80;;;;;;;;;;4921214;28;20698;-78
2021/05/22 08:42:37;;;;;;;4.03;1.00;;;;;;;;;;4922200;28;20059;-78
2021/05/22 08:45:08;;;;;;;4.45;0.80;;;;;;;;;;4926211;28;20102;-76
2021/05/22 08:47:34;;;;;;;1.20;0.70;;;;;;;;;;4920643;28;20143;-77
2021/05/22 08:50:02;;;;;;;1.58;0.63;;;;;;;;;;4919468;28;20095;-80
2021/05/22 08:52:28;;;;;;;2.88;0.90;;;;;;;;;;4921604;28;20076;-80
2021/05/22 08:54:55;;;;;;;2.63;0.75;;;;;;;;;;4939805;28;20087;-79
2021/05/22 08:57:21;;;;;;;3.05;0.90;;;;;;;;;;4923143;28;20055;-79
2021/05/22 08:59:49;;;;;;;4.22;0.68;;;;;;;;;;4936967;28;20067;-80
2021/05/22 09:02:18;;;;;;;1.40;0.80;;;;;;;;;;4917540;28;20051;-81
2021/05/22 09:05:03;;;;;;;2.08;0.82;;;;;;;;;;4922502;28;20067;-80
2021/05/22 09:07:30;;;;;;;1.73;0.70;;;;;;;;;;4937195;28;20095;-80
2021/05/22 09:10:04;;;;;;;2.08;0.85;;;;;;;;;;4920048;28;20137;-80
2021/05/22 09:12:34;;;;;;;3.10;0.80;;;;;;;;;;4919577;28;20051;-81
2021/05/22 09:15:06;;;;;;;3.42;0.60;;;;;;;;;;4921221;28;20043;-79
2021/05/22 09:17:32;;;;;;;3.53;0.90;;;;;;;;;;4920456;28;20579;-83
2021/05/22 09:20:25;;;;;;;2.28;0.80;;;;;;;;;;4925482;28;20071;-79
2021/05/22 09:23:15;;;;;;;1.30;0.70;;;;;;;;;;4922614;28;20339;-79
2021/05/22 09:25:43;;;;;;;2.47;0.60;;;;;;;;;;4922518;28;20548;-80
2021/05/22 09:28:12;;;;;;;3.22;0.93;;;;;;;;;;4943119;28;20031;-80
2021/05/22 09:30:39;;;;;;;2.30;1.17;;;;;;;;;;4922367;28;21335;-79
2021/05/22 09:33:11;;;;;;;2.60;0.90;;;;;;;;;;4923978;28;20044;-79
2021/05/22 09:35:37;;;;;;;2.00;0.80;;;;;;;;;;4916839;28;20332;-80
2021/05/22 09:38:04;;;;;;;2.10;0.73;;;;;;;;;;4935513;28;20086;-79
2021/05/22 09:40:38;;;;;;;3.35;0.90;;;;;;;;;;4934895;28;20103;-79
2021/05/22 09:43:05;;;;;;;2.78;0.90;;;;;;;;;;4926716;28;20063;-81
2021/05/22 09:45:40;;;;;;;2.63;1.08;;;;;;;;;;4932204;28;20142;-79
2021/05/22 09:48:14;;;;;;;4.55;1.20;;;;;;;;;;4915597;28;20093;-79
2021/05/22 09:50:41;;;;;;;3.55;0.80;;;;;;;;;;4918273;28;21502;-78
2021/05/22 09:53:21;;;;;;;1.80;0.80;;;;;;;;;;4920445;28;20071;-78
2021/05/22 09:56:11;;;;;;;5.55;0.98;;;;;;;;;;4922068;28;20071;-80
2021/05/22 09:58:54;;;;;;;2.08;0.95;;;;;;;;;;4922053;28;20585;-78
2021/05/22 10:01:22;;;;;;;4.10;0.90;;;;;;;;;;4929520;28;20154;-79
2021/05/22 10:03:49;;;;;;;2.33;0.90;;;;;;;;;;4941458;28;20115;-78
2021/05/22 10:06:16;;;;;;;2.40;0.80;;;;;;;;;;4918997;28;20241;-80
2021/05/22 10:08:43;;;;;;;3.95;0.90;;;;;;;;;;4920843;28;20079;-82
2021/05/22 10:11:10;;;;;;;3.40;0.90;;;;;;;;;;4923859;28;20067;-79
2021/05/22 10:13:37;;;;;;;2.80;0.93;;;;;;;;;;4908433;29;20580;-80
2021/05/22 10:16:05;;;;;;;2.78;0.90;;;;;;;;;;4926171;28;20090;-80
2021/05/22 10:18:32;;;;;;;3.78;0.98;;;;;;;;;;4926264;28;20048;-81
2021/05/22 10:21:01;;;;;;;3.55;1.10;;;;;;;;;;4929530;28;20079;-84
2021/05/22 10:23:28;;;;;;;5.85;0.90;;;;;;;;;;4930648;28;20028;-85
2021/05/22 10:25:55;;;;;;;4.07;0.88;;;;;;;;;;4930596;28;20040;-86
2021/05/22 10:28:23;;;;;;;2.75;1.05;;;;;;;;;;4925221;28;20051;-83
2021/05/22 10:30:49;;;;;;;3.97;1.00;;;;;;;;;;4938856;28;20811;-81
2021/05/22 10:33:17;;;;;;;3.42;0.70;;;;;;;;;;4925820;28;20055;-78
2021/05/22 10:35:44;;;;;;;2.10;0.70;;;;;;;;;;4939047;28;20064;-75
2021/05/22 10:38:31;;;;;;;3.92;0.88;;;;;;;;;;4918986;28;20534;-78
2021/05/22 10:40:57;;;;;;;3.25;0.80;;;;;;;;;;4920560;28;20040;-77
2021/05/22 10:43:41;;;;;;;3.63;0.88;;;;;;;;;;4917772;28;20050;-77
2021/05/22 10:46:08;;;;;;;3.08;0.90;;;;;;;;;;4934394;28;20111;-77
2021/05/22 10:48:35;;;;;;;1.75;0.70;;;;;;;;;;4920401;28;20051;-78
2021/05/22 10:51:01;;;;;;;2.53;0.80;;;;;;;;;;4920187;28;20516;-76
2021/05/22 10:53:33;;;;;;;9.57;1.45;;;;;;;;;;4933558;28;20117;-76
2021/05/22 10:55:59;;;;;;;;;;;;;;;;;;4938146;28;20567;-75
2021/05/22 10:58:25;;;;;;;5.10;0.75;;;;;;;;;;4919655;28;19958;-78
2021/05/22 11:01:12;;;;;;;4.53;1.00;;;;;;;;;;4921947;28;20139;-76
2021/05/22 11:03:39;;;;;;;3.08;1.10;;;;;;;;;;4931389;28;20328;-80
2021/05/22 11:06:05;;;;;;;4.50;0.80;;;;;;;;;;4936595;28;20056;-80
2021/05/22 11:08:32;;;;;;;3.38;0.98;;;;;;;;;;4933767;28;20100;-80
2021/05/22 11:11:00;;;;;;;4.25;1.00;;;;;;;;;;4932786;28;20048;-80
2021/05/22 11:13:26;;;;;;;2.63;0.70;;;;;;;;;;4905568;28;20172;-81
2021/05/22 11:15:57;;;;;;;4.57;1.00;;;;;;;;;;4935053;28;20056;-81
2021/05/22 11:18:28;;;;;;;3.78;1.00;;;;;;;;;;4925327;28;20283;-81
2021/05/22 11:21:17;;;;;;;3.60;0.85;;;;;;;;;;4934800;28;20096;-80
2021/05/22 11:24:00;;;;;;;2.78;0.82;;;;;;;;;;4934718;28;20356;-79
2021/05/22 11:26:46;;;;;;;3.08;0.88;;;;;;;;;;4936730;28;20519;-78
2021/05/22 11:29:12;;;;;;;2.53;0.90;;;;;;;;;;4928649;28;20071;-79
2021/05/22 11:31:39;;;;;;;2.55;0.75;;;;;;;;;;4941339;28;20170;-81
2021/05/22 11:34:20;;;;;;;2.45;0.77;;;;;;;;;;4916027;28;20139;-81
2021/05/22 11:37:07;;;;;;;2.63;0.90;;;;;;;;;;4923344;28;21689;-82
2021/05/22 11:39:37;;;;;;;1.08;0.60;;;;;;;;;;4919799;28;20063;-80
2021/05/22 11:42:23;;;;;;;2.53;0.82;;;;;;;;;;4921943;28;20067;-79
2021/05/22 11:44:56;;;;;;;2.83;0.90;;;;;;;;;;4928722;28;21199;-80
2021/05/22 11:47:23;;;;;;;2.35;0.90;;;;;;;;;;4938071;28;20059;-81
2021/05/22 11:49:49;;;;;;;2.05;0.95;;;;;;;;;;4930356;28;20558;-82
2021/05/22 11:52:32;;;;;;;3.60;0.75;;;;;;;;;;4922524;28;20626;-83
2021/05/22 11:54:59;;;;;;;2.08;0.68;;;;;;;;;;4939994;28;20071;-80
2021/05/22 11:57:26;;;;;;;2.30;0.90;;;;;;;;;;4934024;28;20701;-80
2021/05/22 11:59:52;;;;;;;4.95;1.05;;;;;;;;;;4934873;28;20469;-79
2021/05/22 12:02:38;;;;;;;3.83;0.90;;;;;;;;;;4934958;28;20127;-80
2021/05/22 12:05:05;;;;;;;3.67;1.00;;;;;;;;;;4922178;29;20067;-82
2021/05/22 12:07:47;;;;;;;1.55;0.63;;;;;;;;;;4943241;28;20095;-79
2021/05/22 12:10:14;;;;;;;2.30;0.75;;;;;;;;;;4935410;28;20716;-81
2021/05/22 12:12:41;;;;;;;2.03;0.75;;;;;;;;;;4939376;28;20052;-80
2021/05/22 12:15:07;;;;;;;2.78;0.80;;;;;;;;;;4923839;28;20139;-80
2021/05/22 12:17:44;;;;;;;1.88;0.80;;;;;;;;;;4919835;28;20122;-80
2021/05/22 12:20:11;;;;;;;3.58;0.70;;;;;;;;;;4901938;28;20040;-80
2021/05/22 12:22:37;;;;;;;2.00;0.82;;;;;;;;;;4923908;28;21244;-80
2021/05/22 12:25:04;;;;;;;2.03;0.90;;;;;;;;;;4921995;28;20129;-79
2021/05/22 12:27:31;;;;;;;2.53;0.77;;;;;;;;;;4933963;28;20075;-79
2021/05/22 12:29:58;;;;;;;2.47;0.80;;;;;;;;;;4930082;28;20067;-80
2021/05/22 12:32:24;;;;;;;2.13;0.73;;;;;;;;;;4907876;28;20126;-79
2021/05/22 12:35:04;;;;;;;4.05;1.08;;;;;;;;;;4922606;28;20096;-79
2021/05/22 12:37:31;;;;;;;1.45;0.70;;;;;;;;;;4922963;28;20075;-77
2021/05/22 12:40:00;;;;;;;2.47;0.85;;;;;;;;;;4925844;28;20063;-80
2021/05/22 12:42:26;;;;;;;4.30;0.90;;;;;;;;;;4914161;28;20055;-79
2021/05/22 12:44:54;;;;;;;2.38;0.80;;;;;;;;;;4922705;28;20107;-79
2021/05/22 12:47:23;;;;;;;3.22;0.73;;;;;;;;;;4920580;28;20067;-78
2021/05/22 12:49:51;;;;;;;2.17;0.82;;;;;;;;;;4909109;29;20036;-80
2021/05/22 12:52:17;;;;;;;3.05;0.82;;;;;;;;;;4922435;28;20086;-80
2021/05/22 12:54:47;;;;;;;2.28;0.70;;;;;;;;;;4922536;28;20063;-79
2021/05/22 12:57:21;;;;;;;3.97;0.90;;;;;;;;;;4906261;28;20063;-78
2021/05/22 12:59:53;;;;;;;3.67;0.90;;;;;;;;;;4921743;28;20036;-80
2021/05/22 13:02:33;;;;;;;4.28;1.13;;;;;;;;;;4919547;28;20058;-80
2021/05/22 13:05:11;;;;;;;3.88;0.80;;;;;;;;;;4926287;29;20036;-80
2021/05/22 13:07:42;;;;;;;2.85;0.80;;;;;;;;;;4932870;28;20143;-80
2021/05/22 13:10:12;;;;;;;3.83;0.70;;;;;;;;;;4936336;28;20079;-80
2021/05/22 13:12:52;;;;;;;2.97;0.90;;;;;;;;;;4927825;28;21800;-79
2021/05/22 13:15:19;;;;;;;4.75;1.10;;;;;;;;;;4944126;28;20524;-79
2021/05/22 13:17:52;;;;;;;4.00;1.02;;;;;;;;;;4942736;28;20404;-79
2021/05/22 13:20:22;;;;;;;2.70;0.70;;;;;;;;;;4937340;28;20131;-80
2021/05/22 13:22:49;;;;;;;1.17;0.68;;;;;;;;;;4929621;28;21092;-79
2021/05/22 13:25:17;;;;;;;2.08;0.80;;;;;;;;;;4927770;28;20039;-80
2021/05/22 13:28:16;;;;;;;2.75;0.68;;;;;;;;;;4938606;28;20114;-80
2021/05/22 13:30:44;;;;;;;2.47;0.85;;;;;;;;;;4904166;28;20114;-80
2021/05/22 13:33:14;;;;;;;2.92;0.70;;;;;;;;;;4941470;28;20047;-81
2021/05/22 13:35:42;;;;;;;5.03;0.80;;;;;;;;;;4921233;28;20063;-80
2021/05/22 13:38:09;;;;;;;1.70;0.60;;;;;;;;;;4923991;28;20040;-79
2021/05/22 13:40:35;;;;;;;4.28;0.82;;;;;;;;;;4935290;28;20069;-81
2021/05/22 13:43:03;;;;;;;2.92;0.88;;;;;;;;;;4935807;28;20043;-79
2021/05/22 13:45:29;;;;;;;2.60;0.80;;;;;;;;;;4910610;28;20790;-81
2021/05/22 13:47:56;;;;;;;2.78;0.88;;;;;;;;;;4937409;28;20043;-74
2021/05/22 13:50:22;;;;;;;1.90;0.70;;;;;;;;;;4944975;28;20087;-74
2021/05/22 13:52:50;;;;;;;6.68;1.35;;;;;;;;;;4921355;29;20453;-76
2021/05/22 13:55:17;;;;;;;5.05;1.58;;;;;;;;;;4925901;28;20571;-78
2021/05/22 13:57:44;;;;;;;11.95;2.17;;;;;;;;;;4940562;28;20075;-76
2021/05/22 14:00:11;;;;;;;6.60;1.35;;;;;;;;;;4923718;28;21275;-77
2021/05/22 14:02:38;;;;;;;2.70;0.80;;;;;;;;;;4929868;28;20419;-77
2021/05/22 14:05:05;;;;;;;4.28;0.85;;;;;;;;;;4937650;28;20139;-77
2021/05/22 14:07:32;;;;;;;1.85;0.77;;;;;;;;;;4936512;28;20056;-77
2021/05/22 14:09:59;;;;;;;3.75;0.85;;;;;;;;;;4939281;28;20036;-77
2021/05/22 14:12:25;;;;;;;3.30;0.93;;;;;;;;;;4939896;28;20527;-76
2021/05/22 14:14:52;;;;;;;3.60;0.82;;;;;;;;;;4922530;28;20056;-76
2021/05/22 14:17:18;;;;;;;2.75;0.80;;;;;;;;;;4922280;28;20118;-77
2021/05/22 14:19:45;;;;;;;2.60;0.93;;;;;;;;;;4937760;28;20800;-77
2021/05/22 14:22:11;;;;;;;2.83;0.93;;;;;;;;;;4924609;28;20063;-77
2021/05/22 14:24:38;;;;;;;1.45;0.68;;;;;;;;;;4936378;28;20838;-78
2021/05/22 14:27:05;;;;;;;4.30;0.90;;;;;;;;;;4940796;28;20145;-78
2021/05/22 14:29:31;;;;;;;2.55;0.98;;;;;;;;;;4918637;28;20596;-77
2021/05/22 14:31:58;;;;;;;2.88;0.70;;;;;;;;;;4921885;28;20064;-77
2021/05/22 14:34:24;;;;;;;1.75;0.65;;;;;;;;;;4933671;28;20066;-77
2021/05/22 14:36:51;;;;;;;3.47;1.00;;;;;;;;;;4937445;28;20067;-76
2021/05/22 14:39:18;;;;;;;4.40;0.90;;;;;;;;;;4935964;28;20583;-77
2021/05/22 14:41:45;;;;;;;3.05;0.90;;;;;;;;;;4940241;28;20039;-77
2021/05/22 14:44:11;;;;;;;3.67;0.65;;;;;;;;;;4919031;28;20500;-77
2021/05/22 14:46:37;;;;;;;1.83;0.60;;;;;;;;;;4929304;28;20063;-77
2021/05/22 14:49:04;;;;;;;3.85;1.05;;;;;;;;;;4937269;28;20063;-77
2021/05/22 14:51:30;;;;;;;6.40;1.05;;;;;;;;;;4918606;28;20142;-77